Aérodrome :
LOGIN :

S'inscrire | Disclaimer

   EN    FR    IT 

 










Légende :    VFR   VFR Marginal   IFR   IFR Intensif   IFR Très Intensif
Visi : 
Plafond : 
>= 8 km
>= 3000ft
5 à 8 km
1000 à 3000 ft
1500m à 5 km
500 à 1000 ft
800 à 1500m
200 à 500 ft
< 800m
< 200 ft
Symboles :   Orages  Brouillard  Fortes neiges  Fortes précipitations  Vent > 20 kt
SIGMETs :   Divers  Orages  Givrage  Turbulence  Onde Orograph.  Cendres Volcan.







- Altitude de l'aérodrome : 126 ft
- Code IATA : WIC
- Voir les cartes d'approche


EGPC - Wick

DERNIER METAR :
  • 211920Z AUTO 15018KT 9999 NCD 13/12 Q1010

METARs EXPIRÉS :
  • 211850Z AUTO 15017KT 9999 BKN005/// 13/12 Q1010
  • 211820Z AUTO 16010KT 9999 SCT005/// 13/12 Q1010
  • 211750Z AUTO 15013KT 9999 SCT005/// 13/12 Q1010
  • 211720Z AUTO 15007KT 9999 NCD 13/12 Q1011
  • 211650Z AUTO 15015KT 9999 NCD 14/12 Q1010
  • 211620Z AUTO 16013KT 9999 NCD 14/12 Q1011

TAF AMD TAF EGPC
Valide du 21 à 18h jusqu'au 22 à 03h UTC


211827Z 2118/2203 15012KT 9999 FEW010
TEMPO 2118/2122 BKN005
PROB40
TEMPO 2118/2203 15015G25KT
ATIS : +44 1955 607 596
Pas de NOTAMs connus pour ce terrain.



MET'MAP, la Météo Aéronautique d'un coup d'oeil ! - Copyright ORBIFLY Décembre 2007 - Disclaimer

ORBIFLY MET'MAP TEAM :

Programmation & Développement : Alexandra Zaïnal
Conception & Développement : Baudouin d'Aumeries
Co-Programmation & Développement : Marc-Olivier Méhu
Soutien technique & logistique : Manuel Goepfert

Contact : metmap@orbifly.com




SOURCES & CREDITS :

   NOAA